Haramachi Maru — JBML — position and weather

sailwx.info

Track history (hours):
 
Tides and Currents Weather Stations Pressure Air Temp Water Temp Dewpoint Dewpoint Depression Visibility Wind Speed Wind Dir Waves Ship Positions

Haramachi Maru

Last reported at 2014-Aug-26 15:22 UTC. Time now 2014-Oct-31 05:37 UTC.
Position S 26°31' E 153°27'.
Warning: this ship's position is months out of date.

Length 239.8 m; beam 43 m.

Type: Cargo ship. MMSI: 431106000.

Date/timePositionNaut miles runAvg speedWind from/ knotsBaromVisibWave heightAir tempDewpointWater temp
2014-Aug-26 15:22S 26°31' E 153°27'910.9
2014-Aug-26 14:33S 26°38' E 153°21'1010.0
2014-Aug-26 13:34S 26°43' E 153°11'9 9.2
2014-Aug-26 12:34S 26°52' E 153°09'1110.9
2014-Aug-26 11:33S 27°01' E 153°15'9 9.5
2014-Aug-26 10:33S 27°09' E 153°21'10 9.7
2014-Aug-26 09:33S 27°17' E 153°15'8 7.7
2014-Aug-26 08:33S 27°23' E 153°09'0 0.1
2014-Aug-26 07:33S 27°23' E 153°10'0 0.0
2014-Aug-26 06:33S 27°23' E 153°10'0 0.0
2014-Aug-26 05:33S 27°23' E 153°10'0 0.0
2014-Aug-26 04:33S 27°23' E 153°10'0 0.0
2014-Aug-26 03:30S 27°23' E 153°10'0 0.0
2014-Aug-26 02:33S 27°23' E 153°10'0 0.0
2014-Aug-26 01:33S 27°23' E 153°10'0 0.0
2014-Aug-26 00:33S 27°23' E 153°10'0 0.0
2014-Aug-25 23:30S 27°23' E 153°10'0 0.0
2014-Aug-25 22:30S 27°23' E 153°10'0 0.0
2014-Aug-25 21:33S 27°23' E 153°10'0 0.0
2014-Aug-25 20:27S 27°23' E 153°10'0 0.1
2014-Aug-25 19:33S 27°23' E 153°09'0 0.1
2014-Aug-25 18:33S 27°23' E 153°10'0 0.0
2014-Aug-25 17:27S 27°23' E 153°10'0 0.0
2014-Aug-25 16:30S 27°23' E 153°10'0 0.0
2014-Aug-25 15:24S 27°23' E 153°10'0 0.1
2014-Aug-25 14:33S 27°23' E 153°09'0 0.1
2014-Aug-25 13:33S 27°23' E 153°10'0 0.0
2014-Aug-25 12:30S 27°23' E 153°10'0 0.1
2014-Aug-25 11:33S 27°23' E 153°09'0 0.1
2014-Aug-25 10:33S 27°23' E 153°10'0 0.0
2014-Aug-25 09:33S 27°23' E 153°10'0 0.0
2014-Aug-25 08:33S 27°23' E 153°10'0 0.0
2014-Aug-25 07:33S 27°23' E 153°10'0 0.0
2014-Aug-25 06:33S 27°23' E 153°10'0 0.0
2014-Aug-25 05:33S 27°23' E 153°10'0 0.1
2014-Aug-25 04:33S 27°23' E 153°09'0 0.1
2014-Aug-25 03:33S 27°23' E 153°10'0 0.1
2014-Aug-25 02:33S 27°23' E 153°09'0 0.1
2014-Aug-25 01:33S 27°23' E 153°10'0 0.0
2014-Aug-25 00:30S 27°23' E 153°10'0 0.0
2014-Aug-24 23:33S 27°23' E 153°10'0 0.0
2014-Aug-24 22:33S 27°23' E 153°10'0 0.1
2014-Aug-24 21:33S 27°23' E 153°09'0 0.1
2014-Aug-24 20:30S 27°23' E 153°10'0 0.0
2014-Aug-24 19:33S 27°23' E 153°10'0 0.0
2014-Aug-24 18:33S 27°23' E 153°10'0 0.0
2014-Aug-24 17:33S 27°23' E 153°10'0 0.0
2014-Aug-24 16:33S 27°23' E 153°10'0 0.1
2014-Aug-24 15:33S 27°23' E 153°09'0 0.1
2014-Aug-24 14:33S 27°23' E 153°10'0 0.0
2014-Aug-24 13:33S 27°23' E 153°10'5 4.6
2014-Aug-24 12:33S 27°19' E 153°12'1010.4
2014-Aug-24 11:34S 27°12' E 153°21'1010.2
2014-Aug-24 10:33S 27°03' E 153°16'1211.9
2014-Aug-24 09:33S 26°52' E 153°10'9 9.3
2014-Aug-24 08:34S 26°43' E 153°11'7 7.0
2014-Aug-24 07:34S 26°39' E 153°17'6 5.9
2014-Aug-24 06:33S 26°36' E 153°23'2 1.9
2014-Aug-24 05:33S 26°38' E 153°24'2 1.8
2014-Aug-24 04:33S 26°39' E 153°25'3 2.8
2014-Aug-24 03:33S 26°41' E 153°23'0 0.3
2014-Aug-24 02:34S 26°41' E 153°23'2 1.6
2014-Aug-24 01:33S 26°41' E 153°25'2 1.5
2014-Aug-24 00:34S 26°41' E 153°27'2 1.6
2014-Aug-23 23:33S 26°41' E 153°28'2 1.6
2014-Aug-23 22:33S 26°41' E 153°30'4 4.4
2014-Aug-23 21:34S 26°39' E 153°26'4 4.3
2014-Aug-23 20:33S 26°37' E 153°21'2 1.5
2014-Aug-23 19:33S 26°38' E 153°23'  
Track history (hours):
 
Tides and Currents Weather Stations Pressure Air Temp Water Temp Dewpoint Dewpoint Depression Visibility Wind Speed Wind Dir Waves Ship Positions

Haramachi Maru

Last reported at 2014-Aug-26 15:22 UTC. Time now 2014-Oct-31 05:37 UTC.
Position S 26°31' E 153°27'.
Warning: this ship's position is months out of date.

Length 239.8 m; beam 43 m.

Type: Cargo ship. MMSI: 431106000.

Date/timePositionNaut miles runAvg speedWind from/ knotsBaromVisibWave heightAir tempDewpointWater temp
2014-Aug-26 15:22S 26°31' E 153°27'910.9
2014-Aug-26 14:33S 26°38' E 153°21'1010.0
2014-Aug-26 13:34S 26°43' E 153°11'9 9.2
2014-Aug-26 12:34S 26°52' E 153°09'1110.9
2014-Aug-26 11:33S 27°01' E 153°15'9 9.5
2014-Aug-26 10:33S 27°09' E 153°21'10 9.7
2014-Aug-26 09:33S 27°17' E 153°15'8 7.7
2014-Aug-26 08:33S 27°23' E 153°09'0 0.1
2014-Aug-26 07:33S 27°23' E 153°10'0 0.0
2014-Aug-26 06:33S 27°23' E 153°10'0 0.0
2014-Aug-26 05:33S 27°23' E 153°10'0 0.0
2014-Aug-26 04:33S 27°23' E 153°10'0 0.0
2014-Aug-26 03:30S 27°23' E 153°10'0 0.0
2014-Aug-26 02:33S 27°23' E 153°10'0 0.0
2014-Aug-26 01:33S 27°23' E 153°10'0 0.0
2014-Aug-26 00:33S 27°23' E 153°10'0 0.0
2014-Aug-25 23:30S 27°23' E 153°10'0 0.0
2014-Aug-25 22:30S 27°23' E 153°10'0 0.0
2014-Aug-25 21:33S 27°23' E 153°10'0 0.0
2014-Aug-25 20:27S 27°23' E 153°10'0 0.1
2014-Aug-25 19:33S 27°23' E 153°09'0 0.1
2014-Aug-25 18:33S 27°23' E 153°10'0 0.0
2014-Aug-25 17:27S 27°23' E 153°10'0 0.0
2014-Aug-25 16:30S 27°23' E 153°10'0 0.0
2014-Aug-25 15:24S 27°23' E 153°10'0 0.1
2014-Aug-25 14:33S 27°23' E 153°09'0 0.1
2014-Aug-25 13:33S 27°23' E 153°10'0 0.0
2014-Aug-25 12:30S 27°23' E 153°10'0 0.1
2014-Aug-25 11:33S 27°23' E 153°09'0 0.1
2014-Aug-25 10:33S 27°23' E 153°10'0 0.0
2014-Aug-25 09:33S 27°23' E 153°10'0 0.0
2014-Aug-25 08:33S 27°23' E 153°10'0 0.0
2014-Aug-25 07:33S 27°23' E 153°10'0 0.0
2014-Aug-25 06:33S 27°23' E 153°10'0 0.0
2014-Aug-25 05:33S 27°23' E 153°10'0 0.1
2014-Aug-25 04:33S 27°23' E 153°09'0 0.1
2014-Aug-25 03:33S 27°23' E 153°10'0 0.1
2014-Aug-25 02:33S 27°23' E 153°09'0 0.1
2014-Aug-25 01:33S 27°23' E 153°10'0 0.0
2014-Aug-25 00:30S 27°23' E 153°10'0 0.0
2014-Aug-24 23:33S 27°23' E 153°10'0 0.0
2014-Aug-24 22:33S 27°23' E 153°10'0 0.1
2014-Aug-24 21:33S 27°23' E 153°09'0 0.1
2014-Aug-24 20:30S 27°23' E 153°10'0 0.0
2014-Aug-24 19:33S 27°23' E 153°10'0 0.0
2014-Aug-24 18:33S 27°23' E 153°10'0 0.0
2014-Aug-24 17:33S 27°23' E 153°10'0 0.0
2014-Aug-24 16:33S 27°23' E 153°10'0 0.1
2014-Aug-24 15:33S 27°23' E 153°09'0 0.1
2014-Aug-24 14:33S 27°23' E 153°10'0 0.0
2014-Aug-24 13:33S 27°23' E 153°10'5 4.6
2014-Aug-24 12:33S 27°19' E 153°12'1010.4
2014-Aug-24 11:34S 27°12' E 153°21'1010.2
2014-Aug-24 10:33S 27°03' E 153°16'1211.9
2014-Aug-24 09:33S 26°52' E 153°10'9 9.3
2014-Aug-24 08:34S 26°43' E 153°11'7 7.0
2014-Aug-24 07:34S 26°39' E 153°17'6 5.9
2014-Aug-24 06:33S 26°36' E 153°23'2 1.9
2014-Aug-24 05:33S 26°38' E 153°24'2 1.8
2014-Aug-24 04:33S 26°39' E 153°25'3 2.8
2014-Aug-24 03:33S 26°41' E 153°23'0 0.3
2014-Aug-24 02:34S 26°41' E 153°23'2 1.6
2014-Aug-24 01:33S 26°41' E 153°25'2 1.5
2014-Aug-24 00:34S 26°41' E 153°27'2 1.6
2014-Aug-23 23:33S 26°41' E 153°28'2 1.6
2014-Aug-23 22:33S 26°41' E 153°30'4 4.4
2014-Aug-23 21:34S 26°39' E 153°26'4 4.3
2014-Aug-23 20:33S 26°37' E 153°21'2 1.5
2014-Aug-23 19:33S 26°38' E 153°23'  

Dump ship's entire track history